Station: Cape Bruny Aws  

  Atmospheric Gas Attenuation - ITU Rec 676-11   ----------------- dB/100km -----------------
Date Time Temp RH % AH g/m3 Dew Point Wind Direction Speed kph Gust kph Barometer mB Rainfall Since 9am 24GHz 47GHz 76GHz 122GHz 134GHz 241GHz
08/05 12:30 11.7 76 7.95 7.6 41 54 1015 0 18.3 25.5 38.3 100.4 92.5 317.6
08/05 12:20 11.3 74 7.55 6.8 52 57 1015.1 0 17.5 25.0 36.9 96.6 87.7 300.7
08/05 12:10 12.4 72 7.87 7.5 43 56 1014.9 0 18.1 25.2 37.6 98.6 90.6 311.1
08/05 12:00 11.5 73 7.54 6.8 46 63 1015 0 17.4 24.9 36.7 96.2 87.3 299.4
08/05 11:50 11.5 68 7.02 5.8 43 52 1014.9 0 16.3 24.1 34.7 90.8 80.6 275.7
08/05 11:40 12.3 69 7.49 6.8 41 54 1014.9 0 17.3 24.6 36.2 94.7 85.8 294.1
08/05 11:30 12.1 68 7.29 6.4 44 65 1014.8 0 16.9 24.3 35.5 92.9 83.4 285.8
08/05 11:20 12.3 70 7.6 7 43 50 1014.7 0 17.5 24.8 36.6 95.9 87.2 299.0
08/05 11:10 11 76 7.61 6.9 50 61 1014.6 0 17.6 25.1 37.2 97.6 88.8 304.5
08/05 11:00 11.3 75 7.65 7 46 70 1014.5 0 17.7 25.1 37.3 97.6 89.0 305.1
08/05 10:50 12 70 7.46 6.7 43 52 1014.4 0 17.2 24.6 36.2 94.7 85.7 293.7
08/05 10:40 11.1 70 7.05 5.8 46 57 1014.4 0 16.4 24.2 35.0 91.5 81.3 278.4
08/05 10:30 11.1 76 7.66 7 46 67 1014.3 0 17.7 25.2 37.4 97.9 89.3 306.3
08/05 10:20 11.3 74 7.55 6.8 43 57 1014.3 0 17.5 25.0 36.8 96.5 87.6 300.5
08/05 10:10 11.1 74 7.46 6.6 37 43 1014.1 0 17.3 24.9 36.6 95.8 86.7 297.0
08/05 10:00 11.3 72 7.35 6.4 44 57 1014 0 17.0 24.6 36.0 94.4 85.0 291.2
08/05 09:50 11.1 77 7.76 7.2 52 61 1014 0 17.9 25.3 37.8 99.0 90.6 310.9
08/05 09:40 10.9 74 7.36 6.5 52 59 1013.8 0 17.1 24.7 36.2 94.9 85.5 293.1
08/05 09:30 11.3 74 7.55 6.8 48 61 1013.7 0 17.5 24.9 36.8 96.5 87.6 300.3
08/05 09:20 11.4 74 7.6 6.9 48 57 1013.4 0 17.6 25.0 37.0 96.8 88.1 302.2
08/05 09:10 10.8 72 7.12 6 57 67 1013.4 0 16.6 24.4 35.3 92.5 82.5 282.4
08/05 09:00 11 73 7.31 6.4 52 70 1013.4 0 17.0 24.6 36.0 94.2 84.8 290.3
08/05 08:50 10.5 75 7.28 6.3 52 65 1013.3 3.4 16.9 24.7 36.1 94.5 84.9 290.8
08/05 08:40 11.1 77 7.76 7.2 46 56 1013.1 3.4 17.9 25.3 37.7 98.9 90.5 310.7
08/05 08:30 10.5 75 7.28 6.3 54 72 1012.8 3.4 16.9 24.7 36.1 94.5 84.9 290.7
08/05 08:20 10.3 77 7.38 6.5 61 69 1012.5 3.4 17.1 24.9 36.5 95.7 86.4 295.9
08/05 08:10 10.9 74 7.36 6.5 61 70 1012.3 3.4 17.1 24.7 36.2 94.8 85.4 292.7
08/05 08:00 10.8 75 7.41 6.6 52 65 1012 3.4 17.2 24.8 36.4 95.4 86.2 295.3
08/05 07:50 10.6 75 7.32 6.4 50 56 1012 3.4 17.0 24.7 36.1 94.7 85.2 291.9
08/05 07:40 10.6 76 7.42 6.6 56 65 1011.7 3.4 17.2 24.8 36.5 95.7 86.5 296.5
08/05 07:30 10.2 75 7.14 6 50 69 1011.3 3.4 16.6 24.5 35.6 93.2 83.2 284.9
08/05 07:20 9.8 79 7.33 6.3 44 56 1011.4 3.4 17.1 24.9 36.5 95.7 86.2 295.2
08/05 07:10 10.9 71 7.06 5.9 56 72 1011.3 3.4 16.4 24.2 35.0 91.5 81.5 278.8
08/05 07:00 10.6 68 6.64 4.9 52 72 1010.8 3.4 15.5 23.6 33.4 87.4 76.3 260.8
08/05 06:50 10.8 72 7.12 6 46 57 1010.8 3.4 16.6 24.3 35.2 92.2 82.3 281.8
08/05 06:40 10.7 71 6.98 5.7 48 59 1010.5 3.4 16.3 24.1 34.7 90.8 80.6 275.7
08/05 06:30 10.6 72 7.03 5.8 54 70 1010.2 3.4 16.4 24.2 34.9 91.4 81.3 278.2
08/05 06:20 10.8 74 7.32 6.4 57 69 1010.1 3.4 17.0 24.6 36.0 94.3 84.9 290.7
08/05 06:10 10.5 76 7.37 6.5 54 69 1010.1 3.4 17.1 24.7 36.3 95.2 85.8 294.1
08/05 06:00 10.2 74 7.04 5.8 61 78 1009.8 3.4 16.4 24.3 35.1 92.0 81.8 280.0
08/05 05:50 10.7 76 7.47 6.6 52 70 1009.7 3.4 17.3 24.8 36.6 95.9 86.9 297.9
08/05 05:40 10.4 74 7.13 6 48 59 1009.4 3.4 16.6 24.3 35.4 92.7 82.8 283.3
08/05 05:30 10.4 77 7.42 6.5 56 72 1009.2 3.4 17.2 24.8 36.5 95.7 86.6 296.6
08/05 05:20 10.3 80 7.66 7 59 70 1009 3.4 17.7 25.2 37.5 98.4 89.8 308.1
08/05 05:10 9.8 81 7.52 6.7 54 61 1008.8 3.4 17.5 25.1 37.2 97.5 88.5 303.4
08/05 05:00 9.2 86 7.68 7 54 80 1008.9 3.4 17.8 25.6 38.1 100.0 91.4 313.4
08/05 04:50 9.7 87 8.02 7.6 46 59 1008.5 3.4 18.5 26.0 39.3 103.1 95.4 327.4
08/05 04:40 9.2 87 7.77 7.2 54 65 1008.3 3.4 18.0 25.7 38.5 100.9 92.6 317.5
08/05 04:30 9.8 87 8.07 7.7 46 67 1008.1 3.2 18.6 26.0 39.4 103.4 95.9 329.3
08/05 04:20 9.3 88 7.91 7.4 37 46 1007.8 3.2 18.3 25.9 39.0 102.3 94.3 323.6
08/05 04:10 9.4 88 7.96 7.5 56 67 1007.7 3.2 18.4 25.9 39.1 102.7 94.9 325.6
08/05 04:00 9.6 91 8.34 8.2 61 83 1007.1 3 19.2 26.5 40.6 106.6 99.8 342.8
08/05 03:50 9.3 89 8 7.6 57 65 1007.1 3 18.5 26.0 39.3 103.2 95.5 327.8
08/05 03:40 9.4 89 8.05 7.7 52 57 1007.1 2.6 18.6 26.0 39.5 103.6 96.0 329.7
08/05 03:30 9.7 88 8.11 7.8 59 78 1006.9 2.6 18.7 26.0 39.6 103.9 96.5 331.3
08/05 03:20 10.5 85 8.25 8.1 61 69 1006.7 2.4 19.0 26.0 39.7 104.3 97.4 334.5
08/05 03:10 10 85 7.99 7.6 59 69 1006.5 2.4 18.5 25.7 38.9 102.1 94.4 324.2
08/05 03:00 9.4 87 7.87 7.3 63 80 1006.6 2.4 18.2 25.7 38.7 101.6 93.5 321.0
08/05 02:50 10.1 86 8.13 7.9 65 78 1006.4 2.2 18.8 25.9 39.4 103.5 96.2 330.4
08/05 02:40 10 86 8.08 7.8 50 61 1006.6 2.2 18.7 25.9 39.3 103.1 95.7 328.5
08/05 02:30 10.4 85 8.19 8 52 70 1006.5 2.2 18.9 26.0 39.5 103.8 96.6 332.0
08/05 02:20 10.3 87 8.33 8.2 52 65 1006.4 2.2 19.2 26.2 40.2 105.5 98.7 339.1
08/05 02:10 10.2 88 8.38 8.3 52 61 1006.1 2.2 19.3 26.3 40.4 106.1 99.5 341.8
08/05 02:00 10.4 87 8.39 8.3 46 63 1006.1 2 19.3 26.3 40.3 106.0 99.3 341.4
08/05 01:50 9.9 84 7.85 7.3 48 61 1006.2 2 18.2 25.5 38.4 100.7 92.6 317.9
08/05 01:40 10.3 83 7.95 7.5 48 54 1005.8 2 18.4 25.6 38.6 101.2 93.5 320.9
08/05 01:30 10.8 80 7.91 7.5 52 69 1005.9 2 18.3 25.4 38.2 100.2 92.3 317.0
08/05 01:20 11.9 72 7.63 7 63 70 1005.6 2 17.6 24.6 36.5 95.8 87.4 299.7
08/05 01:10 11.8 72 7.58 6.9 54 63 1005.5 2 17.5 24.5 36.4 95.3 86.8 297.7
08/05 01:00 11.4 75 7.7 7.1 54 70 1005.4 2 17.8 24.8 37.0 97.1 88.8 304.7
08/05 00:50 10.8 79 7.81 7.3 48 74 1005.3 2 18.0 25.2 37.7 99.0 91.0 312.2
08/05 00:40 11.4 81 8.32 8.3 56 65 1005.2 2 19.1 25.8 39.5 103.8 97.0 333.5
08/05 00:30 11.5 79 8.16 8 50 67 1004.9 2 18.8 25.5 38.8 101.9 94.8 325.5
08/05 00:20 11.2 80 8.11 7.9 57 63 1004.8 2 18.7 25.5 38.7 101.7 94.4 324.4
08/05 00:10 11.2 77 7.81 7.3 52 67 1004.8 2 18.0 25.0 37.5 98.5 90.5 310.4
08/05 00:00 11.5 77 7.95 7.6 52 76 1004.5 2 18.3 25.2 37.9 99.6 91.9 315.6
07/05 23:50 11.3 82 8.37 8.3 56 65 1004.7 2 19.2 25.9 39.7 104.4 97.8 336.2
07/05 23:40 11.2 84 8.52 8.6 52 59 1004.5 2 19.6 26.2 40.4 106.1 99.9 343.6
07/05 23:30 11 88 8.81 9.1 56 80 1004.5 2 20.2 26.7 41.7 109.6 104.2 358.4
07/05 23:20 11.1 88 8.87 9.2 61 72 1004.5 2 20.3 26.8 41.9 110.2 104.9 360.8
07/05 23:10 11.4 85 8.73 9 63 72 1004.4 2 20.0 26.5 41.2 108.2 102.5 352.7
07/05 23:00 11.1 86 8.66 8.8 54 74 1004.6 2 19.9 26.5 41.0 107.8 102.0 350.8
07/05 22:50 11.3 87 8.88 9.2 50 65 1004.2 2 20.3 26.8 41.8 110.0 104.7 360.3
07/05 22:40 11.4 88 9.03 9.5 54 63 1004.3 2 20.6 27.0 42.4 111.5 106.6 367.1
07/05 22:30 11 89 8.91 9.3 63 87 1004.3 2 20.4 26.9 42.1 110.7 105.5 363.2
07/05 22:20 11.4 88 9.03 9.5 63 74 1004.2 1.8 20.6 27.0 42.4 111.5 106.6 367.1
07/05 22:10 11.1 89 8.97 9.4 59 72 1004.2 1.8 20.5 27.0 42.3 111.3 106.2 365.6
07/05 22:00 11.6 89 9.25 9.9 56 76 1004.2 1.8 21.1 27.3 43.2 113.7 109.4 376.7
07/05 21:50 11.4 89 9.14 9.7 61 78 1004.1 1.8 20.9 27.2 42.9 112.7 108.1 372.3
07/05 21:40 11.9 88 9.32 10 54 61 1004.2 1.6 21.2 27.3 43.3 114.0 109.9 378.7
07/05 21:30 11.7 88 9.21 9.8 56 72 1004 1.6 21.0 27.2 43.0 113.1 108.7 374.3
07/05 21:20 11.9 90 9.53 10.3 57 65 1003.9 1.6 21.7 27.7 44.2 116.4 112.8 388.8
07/05 21:10 11.7 91 9.52 10.3 44 56 1004.1 1.6 21.7 27.7 44.3 116.6 113.0 389.3
07/05 21:00 11.6 91 9.46 10.2 48 59 1003.9 1.4 21.6 27.6 44.1 116.0 112.3 386.9
07/05 20:50 11.4 90 9.24 9.8 54 61 1003.9 1.4 21.1 27.3 43.3 113.8 109.5 377.1
07/05 20:40 11.7 88 9.21 9.8 43 56 1003.8 1 21.0 27.2 43.0 113.0 108.7 374.2
07/05 20:30 11.8 87 9.16 9.7 43 54 1003.8 1 20.9 27.1 42.7 112.3 107.8 371.3
07/05 20:20 11.2 89 9.02 9.5 43 52 1004 1 20.6 27.0 42.5 111.6 106.7 367.5
07/05 20:10 9.7 87 8.02 7.6 28 35 1004.3 0.8 18.5 25.8 39.1 102.6 95.0 326.3
07/05 20:00 9.2 84 7.5 6.6 30 39 1004.5 0.8 17.4 25.1 37.2 97.6 88.6 303.8

Last Refresh: 08-May-2026 12:09:24

Bureau of Meteorology